Time;durP1;ratioP1;P1;durP2;ratioP2;P2;SDS_P1;SDS_P2;PMS_P1;PMS_P2;Temp;Humidity;BMP_temperature;BMP_pressure;BME280_temperature;BME280_humidity;BME280_pressure;Samples;Min_cycle;Max_cycle;Signal;HPM_P1;HPM_P2
2023/09/17 00:01:11;;;;;;;9.23;6.18;;;21.10;99.90;;;;;;5074556;28;20485;-80
2023/09/17 00:03:37;;;;;;;8.68;6.38;;;21.00;99.90;;;;;;5075624;28;20020;-78
2023/09/17 00:06:03;;;;;;;11.13;6.47;;;21.00;99.90;;;;;;5057558;28;20037;-80
2023/09/17 00:08:29;;;;;;;9.95;6.13;;;21.00;99.90;;;;;;5057897;28;20477;-80
2023/09/17 00:10:55;;;;;;;10.30;6.45;;;21.00;99.90;;;;;;5057952;28;20029;-80
2023/09/17 00:13:20;;;;;;;10.20;6.10;;;21.00;99.90;;;;;;5057703;28;20036;-80
2023/09/17 00:15:46;;;;;;;8.18;5.85;;;20.90;99.90;;;;;;5075536;28;20131;-80
2023/09/17 00:18:12;;;;;;;8.80;6.13;;;20.90;99.90;;;;;;5074325;28;20526;-83
2023/09/17 00:20:38;;;;;;;9.73;6.10;;;20.90;99.90;;;;;;5057041;28;20024;-80
2023/09/17 00:23:04;;;;;;;11.40;6.38;;;20.80;99.90;;;;;;5074408;28;20076;-81
2023/09/17 00:25:30;;;;;;;8.43;5.80;;;20.80;99.90;;;;;;5074833;28;20094;-80
2023/09/17 00:27:55;;;;;;;8.30;6.03;;;20.80;99.90;;;;;;5057575;28;20031;-80
2023/09/17 00:30:21;;;;;;;11.55;5.95;;;20.80;99.90;;;;;;5074746;28;20148;-81
2023/09/17 00:32:47;;;;;;;7.68;5.28;;;20.80;99.90;;;;;;5075164;28;20056;-78
2023/09/17 00:35:13;;;;;;;8.15;5.25;;;20.80;99.90;;;;;;5056862;28;20048;-79
2023/09/17 00:37:38;;;;;;;8.43;6.07;;;20.80;99.90;;;;;;5057571;28;20024;-79
2023/09/17 00:40:11;;;;;;;8.25;5.18;;;20.80;99.90;;;;;;5056903;28;20036;-81
2023/09/17 00:42:37;;;;;;;10.02;6.15;;;20.70;99.90;;;;;;5057430;28;20029;-79
2023/09/17 00:45:04;;;;;;;10.07;5.50;;;20.70;99.90;;;;;;5074325;28;20036;-82
2023/09/17 00:47:30;;;;;;;8.75;5.78;;;20.70;99.90;;;;;;5057290;28;20024;-79
2023/09/17 00:49:57;;;;;;;9.25;5.70;;;20.70;99.90;;;;;;5056912;28;20048;-80
2023/09/17 00:52:22;;;;;;;8.40;5.70;;;20.70;99.90;;;;;;5056381;28;20024;-80
2023/09/17 00:54:50;;;;;;;8.95;6.03;;;20.70;99.90;;;;;;5074696;28;20025;-79
2023/09/17 00:57:16;;;;;;;7.45;5.80;;;20.70;99.90;;;;;;5056783;28;20031;-80
2023/09/17 00:59:49;;;;;;;8.63;5.90;;;20.70;99.90;;;;;;5056571;28;20103;-79
2023/09/17 01:02:19;;;;;;;8.23;6.00;;;20.70;99.90;;;;;;5074137;28;20415;-80
2023/09/17 01:04:50;;;;;;;7.70;6.00;;;20.70;99.90;;;;;;5056971;28;20032;-80
2023/09/17 01:07:17;;;;;;;10.30;5.57;;;20.70;99.90;;;;;;5056681;28;20087;-80
2023/09/17 01:09:43;;;;;;;7.22;5.65;;;20.60;99.90;;;;;;5074516;28;20043;-80
2023/09/17 01:12:09;;;;;;;8.45;5.80;;;20.60;99.90;;;;;;5056513;28;20028;-80
2023/09/17 01:14:35;;;;;;;8.68;5.85;;;20.60;99.90;;;;;;5056873;28;20024;-80
2023/09/17 01:17:01;;;;;;;8.35;5.85;;;20.60;99.90;;;;;;5074438;28;20343;-80
2023/09/17 01:19:29;;;;;;;9.07;5.60;;;20.60;99.90;;;;;;5056357;28;20032;-79
2023/09/17 01:22:10;;;;;;;8.23;5.25;;;20.50;99.90;;;;;;5056615;28;20027;-79
2023/09/17 01:24:43;;;;;;;10.20;5.93;;;20.50;99.90;;;;;;5073904;28;20036;-80
2023/09/17 01:27:11;;;;;;;8.98;5.63;;;20.50;99.90;;;;;;5073444;28;20404;-81
2023/09/17 01:29:42;;;;;;;9.13;5.20;;;20.40;99.90;;;;;;5074125;28;20016;-80
2023/09/17 01:32:11;;;;;;;7.55;5.72;;;20.50;99.90;;;;;;5056062;28;20039;-81
2023/09/17 01:34:40;;;;;;;8.35;6.00;;;20.50;99.90;;;;;;5073815;28;20044;-79
2023/09/17 01:37:11;;;;;;;7.85;5.50;;;20.40;99.90;;;;;;5073719;28;20028;-81
2023/09/17 01:39:45;;;;;;;8.27;5.57;;;20.40;99.90;;;;;;5074321;28;20021;-80
2023/09/17 01:42:12;;;;;;;9.13;5.65;;;20.40;99.90;;;;;;5074150;28;20032;-80
2023/09/17 01:44:40;;;;;;;11.15;5.97;;;20.40;99.90;;;;;;5056519;28;20042;-79
2023/09/17 01:47:06;;;;;;;9.27;6.05;;;20.30;99.90;;;;;;5056114;28;20025;-83
2023/09/17 01:49:33;;;;;;;8.30;5.50;;;20.30;99.90;;;;;;5056299;28;20115;-81
2023/09/17 01:51:59;;;;;;;9.23;5.47;;;20.40;99.90;;;;;;5056508;28;20024;-80
2023/09/17 01:54:28;;;;;;;9.50;6.07;;;20.30;99.90;;;;;;5055635;28;20028;-80
2023/09/17 01:56:53;;;;;;;7.43;5.82;;;20.40;99.90;;;;;;5074295;28;20021;-80
2023/09/17 01:59:19;;;;;;;7.47;5.50;;;20.30;99.90;;;;;;5055850;28;20378;-80
2023/09/17 02:01:44;;;;;;;7.88;5.75;;;20.30;99.90;;;;;;5056632;28;20048;-80
2023/09/17 02:04:10;;;;;;;7.60;5.32;;;20.30;99.90;;;;;;5073353;28;20036;-82
2023/09/17 02:06:36;;;;;;;9.90;5.28;;;20.30;99.90;;;;;;5073967;28;20035;-80
2023/09/17 02:09:08;;;;;;;7.38;5.53;;;20.30;99.90;;;;;;5055525;28;20041;-80
2023/09/17 02:11:34;;;;;;;9.55;5.53;;;20.30;99.90;;;;;;5073699;28;20047;-80
2023/09/17 02:13:59;;;;;;;9.52;6.07;;;20.30;99.90;;;;;;5056272;28;20448;-80
2023/09/17 02:16:25;;;;;;;10.40;5.85;;;20.30;99.90;;;;;;5073044;28;20246;-81
2023/09/17 02:18:51;;;;;;;9.60;5.90;;;20.20;99.90;;;;;;5073460;28;20027;-80
2023/09/17 02:21:16;;;;;;;7.63;5.68;;;20.20;99.90;;;;;;5055931;28;20032;-80
2023/09/17 02:23:44;;;;;;;7.63;5.35;;;20.20;99.90;;;;;;5073619;28;20025;-80
2023/09/17 02:26:10;;;;;;;6.65;5.70;;;20.20;99.90;;;;;;5055377;28;20040;-83
2023/09/17 02:28:35;;;;;;;8.52;5.90;;;20.20;99.90;;;;;;5055755;28;20020;-80
2023/09/17 02:31:02;;;;;;;8.77;5.80;;;20.20;99.90;;;;;;5074189;28;20031;-80
2023/09/17 02:33:28;;;;;;;8.77;5.88;;;20.20;99.90;;;;;;5073100;28;20048;-80
2023/09/17 02:35:53;;;;;;;7.63;5.03;;;20.10;99.90;;;;;;5056066;28;20039;-80
2023/09/17 02:38:19;;;;;;;9.68;5.22;;;20.10;99.90;;;;;;5073142;28;20025;-80
2023/09/17 02:40:45;;;;;;;7.22;5.35;;;20.20;99.90;;;;;;5073703;28;20029;-79
2023/09/17 02:43:10;;;;;;;7.70;4.95;;;20.20;99.90;;;;;;5055099;28;20024;-82
2023/09/17 02:45:36;;;;;;;7.47;4.80;;;20.20;99.90;;;;;;5055868;28;20079;-80
2023/09/17 02:48:02;;;;;;;8.05;5.05;;;20.20;99.90;;;;;;5059515;28;20474;-80
2023/09/17 02:50:27;;;;;;;5.97;4.68;;;20.30;99.90;;;;;;5076787;28;20048;-80
2023/09/17 02:52:53;;;;;;;8.13;4.88;;;20.20;99.90;;;;;;5076959;28;20028;-80
2023/09/17 02:55:19;;;;;;;9.80;4.97;;;20.30;99.90;;;;;;5058346;28;20033;-81
2023/09/17 02:57:44;;;;;;;8.80;5.35;;;20.30;99.90;;;;;;5059121;28;20149;-81
2023/09/17 03:00:13;;;;;;;8.07;5.20;;;20.20;99.90;;;;;;5077101;28;20511;-81
2023/09/17 03:02:38;;;;;;;7.90;5.10;;;20.20;99.90;;;;;;5059231;28;20083;-80
2023/09/17 03:05:05;;;;;;;9.10;4.90;;;20.20;99.90;;;;;;5059196;28;20040;-80
2023/09/17 03:07:32;;;;;;;7.43;4.82;;;20.20;99.90;;;;;;5058581;28;20020;-80
2023/09/17 03:09:59;;;;;;;8.55;5.28;;;20.10;99.90;;;;;;5058833;28;20516;-80
2023/09/17 03:12:26;;;;;;;6.70;5.05;;;20.10;99.90;;;;;;5058786;28;20032;-80
2023/09/17 03:14:52;;;;;;;7.63;5.40;;;20.00;99.90;;;;;;5058948;28;20032;-80
2023/09/17 03:17:17;;;;;;;8.23;5.70;;;20.00;99.90;;;;;;5076118;28;20028;-80
2023/09/17 03:19:43;;;;;;;7.78;5.68;;;20.00;99.90;;;;;;5058967;28;20491;-80
2023/09/17 03:22:08;;;;;;;8.85;5.22;;;20.00;99.90;;;;;;5058747;28;20027;-79
2023/09/17 03:24:34;;;;;;;7.30;5.10;;;19.90;99.90;;;;;;5076102;28;20032;-79
2023/09/17 03:27:00;;;;;;;7.90;5.32;;;19.90;99.90;;;;;;5076348;28;20458;-79
2023/09/17 03:29:25;;;;;;;9.50;5.60;;;19.90;99.90;;;;;;5058162;28;20020;-79
2023/09/17 03:31:52;;;;;;;10.30;5.63;;;19.90;99.90;;;;;;5058697;28;20078;-79
2023/09/17 03:34:17;;;;;;;8.52;5.43;;;19.90;99.90;;;;;;5076153;28;20024;-79
2023/09/17 03:36:43;;;;;;;6.47;5.05;;;19.90;99.90;;;;;;5058604;28;20059;-80
2023/09/17 03:39:09;;;;;;;9.27;6.10;;;19.80;99.90;;;;;;5058922;28;20064;-80
2023/09/17 03:41:34;;;;;;;7.25;5.50;;;19.90;99.90;;;;;;5076006;28;20029;-80
2023/09/17 03:44:00;;;;;;;9.00;5.53;;;19.90;99.90;;;;;;5058589;28;20100;-80
2023/09/17 03:46:26;;;;;;;9.15;6.05;;;19.90;99.90;;;;;;5057796;28;20094;-80
2023/09/17 03:48:52;;;;;;;7.75;5.07;;;19.80;99.90;;;;;;5058425;28;20028;-80
2023/09/17 03:51:17;;;;;;;9.80;5.97;;;19.80;99.90;;;;;;5057251;28;20048;-81
2023/09/17 03:53:43;;;;;;;10.48;5.68;;;19.80;99.90;;;;;;5058478;28;20050;-80
2023/09/17 03:56:11;;;;;;;7.90;5.60;;;19.80;99.90;;;;;;5058071;28;20036;-80
2023/09/17 03:58:37;;;;;;;7.55;5.30;;;19.80;99.90;;;;;;5058046;28;20039;-80
2023/09/17 04:01:06;;;;;;;8.35;5.68;;;19.80;99.90;;;;;;5075864;28;20381;-79
2023/09/17 04:03:32;;;;;;;7.03;5.40;;;19.90;99.90;;;;;;5057724;28;20111;-80
2023/09/17 04:05:58;;;;;;;7.97;5.63;;;19.90;99.90;;;;;;5058158;28;20032;-80
2023/09/17 04:08:24;;;;;;;8.10;5.57;;;19.90;99.90;;;;;;5057696;28;20027;-79
2023/09/17 04:10:53;;;;;;;7.53;5.50;;;19.80;99.90;;;;;;5057677;28;20020;-80
2023/09/17 04:13:19;;;;;;;7.93;5.30;;;19.80;99.90;;;;;;5074817;28;20478;-80
2023/09/17 04:15:44;;;;;;;7.05;4.97;;;19.80;99.90;;;;;;5074993;28;20036;-80
2023/09/17 04:18:10;;;;;;;8.77;5.25;;;19.80;99.90;;;;;;5057422;28;20111;-79
2023/09/17 04:20:36;;;;;;;9.52;5.95;;;19.80;99.90;;;;;;5055253;28;20026;-80
2023/09/17 04:23:02;;;;;;;8.15;5.22;;;19.80;99.90;;;;;;5076171;28;20021;-80
2023/09/17 04:25:28;;;;;;;6.32;5.00;;;19.70;99.90;;;;;;5075357;28;20457;-80
2023/09/17 04:27:54;;;;;;;11.57;6.03;;;19.70;99.90;;;;;;5057997;28;20081;-79
2023/09/17 04:30:20;;;;;;;7.15;5.43;;;19.70;99.90;;;;;;5074963;28;20069;-80
2023/09/17 04:32:47;;;;;;;7.28;5.55;;;19.70;99.90;;;;;;5074735;28;20021;-78
2023/09/17 04:35:15;;;;;;;10.90;6.22;;;19.70;99.90;;;;;;5074715;28;20036;-81
2023/09/17 04:37:41;;;;;;;7.53;5.18;;;19.70;99.90;;;;;;5081588;28;20107;-79
2023/09/17 04:40:08;;;;;;;7.10;5.13;;;19.70;99.90;;;;;;5089280;28;20481;-81
2023/09/17 04:42:44;;;;;;;10.65;5.10;;;19.70;99.90;;;;;;5084651;28;20025;-80
2023/09/17 04:45:11;;;;;;;9.63;4.97;;;19.60;99.90;;;;;;5062355;28;20052;-80
2023/09/17 04:47:37;;;;;;;7.32;5.53;;;19.60;99.90;;;;;;5058391;28;20031;-80
2023/09/17 04:50:08;;;;;;;8.20;5.45;;;19.70;99.90;;;;;;5057735;28;20052;-80
2023/09/17 04:52:34;;;;;;;6.40;5.50;;;19.60;99.90;;;;;;5055438;28;20032;-79
2023/09/17 04:55:00;;;;;;;7.88;5.45;;;19.60;99.90;;;;;;5063380;28;20385;-80
2023/09/17 04:57:25;;;;;;;6.45;5.20;;;19.60;99.90;;;;;;5076652;28;20020;-80
2023/09/17 04:59:51;;;;;;;7.88;5.57;;;19.50;99.90;;;;;;5077363;28;20479;-80
2023/09/17 05:02:17;;;;;;;7.72;5.78;;;19.50;99.90;;;;;;5078371;28;20048;-80
2023/09/17 05:04:43;;;;;;;8.85;5.07;;;19.50;99.90;;;;;;5082747;28;20035;-80
2023/09/17 05:07:08;;;;;;;8.18;4.95;;;19.50;99.90;;;;;;5080197;28;20025;-80
2023/09/17 05:09:34;;;;;;;8.23;4.85;;;19.50;99.90;;;;;;5081900;28;20229;-79
2023/09/17 05:11:59;;;;;;;7.90;5.78;;;19.50;99.90;;;;;;5081299;28;20024;-79
2023/09/17 05:14:26;;;;;;;9.20;5.13;;;19.50;99.90;;;;;;5079557;28;20069;-79
2023/09/17 05:16:51;;;;;;;6.80;4.93;;;19.50;99.90;;;;;;5079114;28;20029;-79
2023/09/17 05:19:17;;;;;;;7.93;5.00;;;19.40;99.90;;;;;;5067993;28;20039;-79
2023/09/17 05:21:43;;;;;;;7.45;5.05;;;19.50;99.90;;;;;;5085533;28;20105;-80
2023/09/17 05:24:08;;;;;;;8.52;5.40;;;19.50;99.90;;;;;;5077940;28;20059;-81
2023/09/17 05:26:34;;;;;;;9.80;5.38;;;19.40;99.90;;;;;;5059067;28;20044;-80
2023/09/17 05:28:59;;;;;;;7.25;5.28;;;19.40;99.90;;;;;;5088266;28;20079;-81
2023/09/17 05:31:25;;;;;;;10.48;5.25;;;19.40;99.90;;;;;;5085849;28;20035;-80
2023/09/17 05:33:51;;;;;;;6.45;4.75;;;19.40;99.90;;;;;;5063620;28;20154;-80
2023/09/17 05:36:17;;;;;;;7.05;5.20;;;19.50;99.90;;;;;;5066384;28;20141;-83
2023/09/17 05:38:42;;;;;;;6.93;4.70;;;19.40;99.90;;;;;;5084155;28;20099;-80
2023/09/17 05:41:10;;;;;;;6.70;4.70;;;19.50;99.90;;;;;;5067718;28;20036;-80
2023/09/17 05:43:36;;;;;;;5.97;4.53;;;19.40;99.90;;;;;;5080875;28;20024;-80
2023/09/17 05:46:01;;;;;;;6.70;4.40;;;19.40;99.90;;;;;;5080903;28;20421;-82
2023/09/17 05:48:28;;;;;;;7.35;4.50;;;19.50;99.90;;;;;;5066100;28;20298;-79
2023/09/17 05:50:53;;;;;;;7.75;4.50;;;19.40;99.90;;;;;;5081335;28;20044;-80
2023/09/17 05:53:19;;;;;;;6.85;4.70;;;19.50;99.90;;;;;;5080007;28;20029;-81
2023/09/17 05:55:45;;;;;;;8.23;4.40;;;19.50;99.90;;;;;;5084846;28;20024;-80
2023/09/17 05:58:10;;;;;;;5.63;4.07;;;19.40;99.90;;;;;;5078244;28;20029;-80
2023/09/17 06:00:36;;;;;;;5.88;3.88;;;19.50;99.90;;;;;;5080178;28;20032;-80
2023/09/17 06:03:02;;;;;;;6.95;4.22;;;19.40;99.90;;;;;;5058872;28;20481;-80
2023/09/17 06:05:27;;;;;;;7.28;4.05;;;19.40;99.90;;;;;;5069378;28;20063;-81
2023/09/17 06:07:54;;;;;;;6.50;4.20;;;19.40;99.90;;;;;;5082175;28;20071;-81
2023/09/17 06:10:20;;;;;;;7.25;4.50;;;19.50;99.90;;;;;;5068783;28;20027;-80
2023/09/17 06:12:46;;;;;;;6.53;4.25;;;19.40;99.90;;;;;;5077968;28;20024;-80
2023/09/17 06:15:11;;;;;;;6.65;4.50;;;19.50;99.90;;;;;;5061167;28;20460;-80
2023/09/17 06:17:37;;;;;;;5.70;4.22;;;19.50;99.90;;;;;;5062029;28;20568;-81
2023/09/17 06:20:03;;;;;;;7.25;4.35;;;19.50;99.90;;;;;;5080398;28;20119;-79
2023/09/17 06:22:29;;;;;;;7.78;4.63;;;19.60;99.90;;;;;;5086902;28;20170;-80
2023/09/17 06:24:54;;;;;;;6.20;4.65;;;19.60;99.90;;;;;;5086568;28;20532;-82
2023/09/17 06:27:21;;;;;;;5.78;4.40;;;19.60;99.90;;;;;;5088271;28;20028;-83
2023/09/17 06:29:46;;;;;;;5.88;4.63;;;19.70;99.90;;;;;;5083041;28;20031;-80
2023/09/17 06:32:12;;;;;;;8.07;4.75;;;19.70;99.90;;;;;;5083193;28;20033;-83
2023/09/17 06:34:37;;;;;;;5.95;4.05;;;19.70;99.90;;;;;;5070092;28;20039;-81
2023/09/17 06:37:03;;;;;;;5.82;4.50;;;19.70;99.90;;;;;;5064516;28;20043;-80
2023/09/17 06:39:29;;;;;;;5.32;4.22;;;19.80;99.90;;;;;;5064468;28;20024;-80
2023/09/17 06:41:55;;;;;;;7.45;4.45;;;19.80;99.90;;;;;;5067049;28;20510;-81
2023/09/17 06:44:23;;;;;;;6.45;4.53;;;19.90;99.90;;;;;;5083258;28;20036;-83
2023/09/17 06:46:48;;;;;;;7.30;4.57;;;19.90;99.90;;;;;;5062918;28;20031;-80
2023/09/17 06:49:14;;;;;;;4.65;3.95;;;20.00;99.90;;;;;;5061435;28;20024;-80
2023/09/17 06:51:40;;;;;;;6.25;4.70;;;20.00;99.90;;;;;;5063479;28;20048;-81
2023/09/17 06:54:05;;;;;;;7.88;3.88;;;20.00;99.90;;;;;;5085256;28;20024;-81
2023/09/17 06:56:31;;;;;;;9.27;4.88;;;20.00;99.90;;;;;;5078562;28;20040;-79
2023/09/17 06:58:57;;;;;;;5.88;3.70;;;20.00;99.90;;;;;;5072640;28;20028;-80
2023/09/17 07:01:22;;;;;;;7.88;4.22;;;20.10;99.90;;;;;;5079933;28;20024;-80
2023/09/17 07:03:49;;;;;;;7.03;3.97;;;20.10;99.90;;;;;;5067475;28;20128;-80
2023/09/17 07:06:16;;;;;;;5.38;3.88;;;20.20;99.90;;;;;;5082978;28;20111;-81
2023/09/17 07:08:44;;;;;;;6.18;4.32;;;20.20;99.90;;;;;;5082424;28;20200;-80
2023/09/17 07:11:13;;;;;;;6.45;3.92;;;20.30;99.90;;;;;;5078338;28;20035;-80
2023/09/17 07:13:40;;;;;;;5.70;3.70;;;20.30;99.90;;;;;;5084680;28;20056;-81
2023/09/17 07:16:06;;;;;;;6.60;3.63;;;20.30;99.90;;;;;;5082028;28;20041;-81
2023/09/17 07:18:32;;;;;;;6.60;3.67;;;20.30;99.90;;;;;;5082545;28;20063;-81
2023/09/17 07:20:58;;;;;;;7.00;4.63;;;20.30;99.90;;;;;;5085687;28;20056;-80
2023/09/17 07:23:24;;;;;;;10.38;5.88;;;20.40;99.90;;;;;;5069171;28;20024;-79
2023/09/17 07:25:50;;;;;;;8.52;5.65;;;20.40;99.90;;;;;;5076477;28;20027;-81
2023/09/17 07:28:16;;;;;;;6.63;4.80;;;20.40;99.90;;;;;;5064329;28;20620;-81
2023/09/17 07:30:42;;;;;;;8.45;4.47;;;20.50;99.90;;;;;;5063620;28;20111;-79
2023/09/17 07:33:07;;;;;;;8.05;4.15;;;20.50;99.90;;;;;;5086619;28;20059;-79
2023/09/17 07:35:34;;;;;;;6.53;3.60;;;20.50;99.90;;;;;;5081050;28;20436;-83
2023/09/17 07:38:00;;;;;;;7.97;4.43;;;20.60;99.90;;;;;;5060050;28;20025;-83
2023/09/17 07:40:26;;;;;;;5.47;3.80;;;20.60;99.90;;;;;;5068021;28;20120;-84
2023/09/17 07:42:51;;;;;;;5.57;3.90;;;20.70;99.90;;;;;;5067900;28;20056;-79
2023/09/17 07:45:18;;;;;;;4.45;3.60;;;20.70;99.90;;;;;;5087510;28;20034;-79
2023/09/17 07:47:44;;;;;;;5.82;4.10;;;20.70;99.90;;;;;;5065613;28;20106;-81
2023/09/17 07:50:10;;;;;;;7.30;4.30;;;20.80;99.90;;;;;;5078332;28;20481;-81
2023/09/17 07:52:35;;;;;;;8.15;3.85;;;20.90;99.90;;;;;;5085818;28;20170;-80
2023/09/17 07:55:01;;;;;;;6.75;4.38;;;20.90;99.90;;;;;;5065793;28;20040;-80
2023/09/17 07:57:27;;;;;;;5.90;3.95;;;20.90;99.90;;;;;;5069369;28;20035;-81
2023/09/17 07:59:53;;;;;;;5.20;3.83;;;20.90;99.90;;;;;;5082741;28;20028;-80
2023/09/17 08:02:19;;;;;;;7.72;4.22;;;20.90;99.90;;;;;;5066477;28;20035;-80
2023/09/17 08:04:44;;;;;;;6.82;4.38;;;20.90;99.90;;;;;;5082677;28;20037;-83
2023/09/17 08:07:11;;;;;;;6.40;3.72;;;20.90;99.90;;;;;;5077825;28;20032;-82
2023/09/17 08:09:37;;;;;;;6.68;3.83;;;20.90;99.90;;;;;;5079403;28;20051;-84
2023/09/17 08:12:03;;;;;;;6.25;3.92;;;20.90;99.90;;;;;;5061739;28;20105;-84
2023/09/17 08:14:29;;;;;;;5.18;4.13;;;20.90;99.90;;;;;;5081742;28;20362;-83
2023/09/17 08:16:55;;;;;;;6.63;3.97;;;21.00;99.90;;;;;;5081752;28;20096;-84
2023/09/17 08:19:21;;;;;;;7.25;3.83;;;21.00;99.90;;;;;;5088771;28;20038;-83
2023/09/17 08:21:47;;;;;;;5.90;3.60;;;21.00;99.90;;;;;;5063728;28;20028;-82
2023/09/17 08:24:14;;;;;;;5.28;4.15;;;21.00;99.90;;;;;;5066479;28;20058;-81
2023/09/17 08:26:40;;;;;;;6.22;4.05;;;21.10;99.90;;;;;;5067328;28;20116;-83
2023/09/17 08:29:06;;;;;;;5.80;3.97;;;21.10;99.90;;;;;;5082634;28;20114;-82
2023/09/17 08:31:32;;;;;;;6.63;4.43;;;21.10;99.90;;;;;;5084800;28;20128;-82
2023/09/17 08:33:58;;;;;;;8.77;4.53;;;21.10;99.90;;;;;;5058055;28;20516;-82
2023/09/17 08:36:25;;;;;;;5.43;3.70;;;21.10;99.90;;;;;;5057409;28;20124;-82
2023/09/17 08:38:52;;;;;;;6.88;3.38;;;21.20;99.90;;;;;;5056326;28;20028;-82
2023/09/17 08:41:22;;;;;;;4.95;3.58;;;21.20;99.90;;;;;;5059144;28;20032;-82
2023/09/17 08:43:51;;;;;;;4.70;3.70;;;21.30;99.90;;;;;;5055161;28;20047;-81
2023/09/17 08:46:19;;;;;;;5.28;4.10;;;21.30;99.90;;;;;;5058516;28;20079;-81
2023/09/17 08:48:45;;;;;;;9.10;3.92;;;21.30;99.90;;;;;;5078302;28;20024;-80
2023/09/17 08:51:15;;;;;;;7.25;4.03;;;21.30;99.90;;;;;;5060800;28;20079;-83
2023/09/17 08:53:54;;;;;;;7.03;3.53;;;21.40;99.90;;;;;;5061445;28;20184;-81
2023/09/17 08:56:21;;;;;;;5.20;3.58;;;21.50;99.90;;;;;;5078860;28;20035;-82
2023/09/17 08:58:58;;;;;;;5.57;3.72;;;21.50;99.90;;;;;;5060151;28;20028;-83
2023/09/17 09:01:27;;;;;;;6.35;3.75;;;21.60;99.90;;;;;;5069360;28;20036;-84
2023/09/17 09:03:56;;;;;;;6.90;3.88;;;21.60;99.90;;;;;;5059769;28;20128;-83
2023/09/17 09:06:24;;;;;;;6.63;3.65;;;21.70;99.90;;;;;;5082582;28;20059;-84
2023/09/17 09:08:52;;;;;;;4.80;4.00;;;21.70;99.90;;;;;;5068344;28;20036;-83
2023/09/17 09:11:18;;;;;;;5.38;3.70;;;21.80;99.90;;;;;;5062383;28;20078;-83
2023/09/17 09:13:46;;;;;;;6.72;3.55;;;21.80;99.90;;;;;;5066422;28;20029;-84
2023/09/17 09:16:12;;;;;;;6.68;3.53;;;21.90;99.90;;;;;;5085811;28;20025;-83
2023/09/17 09:18:38;;;;;;;5.78;3.35;;;21.90;99.90;;;;;;5062707;28;20039;-85
2023/09/17 09:21:04;;;;;;;4.75;3.83;;;22.00;99.90;;;;;;5059579;28;20362;-83
2023/09/17 09:23:29;;;;;;;7.35;3.90;;;22.00;99.90;;;;;;5065816;28;20028;-84
2023/09/17 09:25:55;;;;;;;5.60;3.90;;;22.00;99.90;;;;;;5077249;28;20074;-83
2023/09/17 09:28:21;;;;;;;4.00;3.08;;;22.00;99.90;;;;;;5064155;28;20032;-84
2023/09/17 09:30:46;;;;;;;7.90;3.42;;;22.00;99.90;;;;;;5083616;28;20025;-84
2023/09/17 09:33:13;;;;;;;5.05;3.20;;;22.10;99.90;;;;;;5063476;28;20489;-83
2023/09/17 09:35:39;;;;;;;4.32;2.65;;;22.10;99.90;;;;;;5075435;28;20465;-83
2023/09/17 09:38:05;;;;;;;3.53;2.60;;;22.20;99.90;;;;;;5062359;28;20024;-83
2023/09/17 09:40:34;;;;;;;4.28;2.95;;;22.20;99.90;;;;;;5077411;28;20032;-82
2023/09/17 09:43:02;;;;;;;4.65;2.88;;;22.20;99.90;;;;;;5089139;28;20063;-82
2023/09/17 09:45:28;;;;;;;4.50;2.47;;;22.30;99.90;;;;;;5059973;28;20047;-83
2023/09/17 09:47:54;;;;;;;6.30;2.80;;;22.30;99.90;;;;;;5072068;28;20033;-83
2023/09/17 09:50:27;;;;;;;4.28;2.88;;;22.40;99.90;;;;;;5059421;28;20062;-85
2023/09/17 09:52:54;;;;;;;4.28;2.53;;;22.50;99.90;;;;;;5056921;28;20028;-84
2023/09/17 09:55:24;;;;;;;4.85;2.67;;;22.60;99.90;;;;;;5060748;28;20040;-81
2023/09/17 09:57:49;;;;;;;4.07;2.45;;;22.70;99.90;;;;;;5081299;28;20032;-83
2023/09/17 10:00:16;;;;;;;5.68;2.83;;;22.70;99.90;;;;;;5080993;28;20395;-83
2023/09/17 10:02:43;;;;;;;6.05;2.67;;;22.80;99.90;;;;;;5064309;28;20031;-84
2023/09/17 10:05:16;;;;;;;5.88;2.47;;;22.90;99.90;;;;;;5066761;28;20036;-83
2023/09/17 10:07:45;;;;;;;4.45;2.55;;;23.10;99.90;;;;;;5060816;28;20036;-86
2023/09/17 10:10:11;;;;;;;3.55;2.70;;;23.30;99.90;;;;;;5072398;28;20542;-83
2023/09/17 10:12:37;;;;;;;5.32;2.22;;;23.40;99.90;;;;;;5065363;28;20123;-83
2023/09/17 10:15:05;;;;;;;3.55;2.13;;;23.40;99.90;;;;;;5083993;28;20036;-84
2023/09/17 10:17:33;;;;;;;5.35;2.75;;;23.60;99.90;;;;;;5065553;28;20088;-80
2023/09/17 10:20:00;;;;;;;5.60;2.90;;;23.70;99.90;;;;;;5057042;28;20020;-81
2023/09/17 10:22:26;;;;;;;6.13;2.63;;;23.80;99.90;;;;;;5072797;28;20025;-81
2023/09/17 10:24:53;;;;;;;5.95;2.70;;;23.90;99.90;;;;;;5062936;28;20028;-80
2023/09/17 10:27:21;;;;;;;7.25;2.85;;;23.90;99.90;;;;;;5055671;28;20044;-81
2023/09/17 10:29:50;;;;;;;4.95;2.25;;;24.00;99.90;;;;;;5056660;28;20032;-81
2023/09/17 10:32:18;;;;;;;3.65;2.22;;;24.20;99.90;;;;;;5076589;28;20373;-80
2023/09/17 10:34:46;;;;;;;4.78;2.13;;;24.30;99.90;;;;;;5060995;28;20040;-81
2023/09/17 10:37:16;;;;;;;5.28;2.20;;;24.50;99.90;;;;;;5057829;28;20052;-82
2023/09/17 10:39:43;;;;;;;3.30;2.23;;;24.50;99.90;;;;;;5057605;28;20571;-85
2023/09/17 10:42:11;;;;;;;6.35;2.20;;;24.70;99.90;;;;;;5051531;28;20265;-80
2023/09/17 10:44:39;;;;;;;5.90;2.53;;;24.90;99.90;;;;;;5075297;28;20103;-81
2023/09/17 10:47:09;;;;;;;5.72;2.10;;;25.00;99.90;;;;;;5059876;28;20119;-84
2023/09/17 10:49:37;;;;;;;6.35;2.10;;;25.10;99.90;;;;;;5074198;28;20103;-86
2023/09/17 10:52:08;;;;;;;6.15;2.03;;;25.20;99.90;;;;;;5075899;28;20052;-84
2023/09/17 10:54:33;;;;;;;5.17;2.30;;;25.40;99.90;;;;;;5056721;28;20530;-84
2023/09/17 10:57:04;;;;;;;8.48;2.53;;;25.50;99.90;;;;;;5079727;28;20028;-85
2023/09/17 10:59:31;;;;;;;8.35;2.47;;;25.60;99.90;;;;;;5071831;28;20074;-84
2023/09/17 11:01:57;;;;;;;9.32;2.45;;;25.50;99.90;;;;;;5059210;28;20042;-82
2023/09/17 11:04:25;;;;;;;5.53;2.08;;;25.60;99.90;;;;;;5078992;28;20036;-85
2023/09/17 11:06:52;;;;;;;3.65;2.47;;;25.70;99.90;;;;;;5062644;28;20044;-84
2023/09/17 11:09:19;;;;;;;5.40;2.20;;;25.80;99.90;;;;;;5069867;28;20021;-84
2023/09/17 11:11:44;;;;;;;3.85;2.30;;;25.80;99.90;;;;;;5080548;28;20040;-81
2023/09/17 11:14:10;;;;;;;5.50;1.80;;;25.80;99.90;;;;;;5061799;28;20025;-84
2023/09/17 11:16:36;;;;;;;9.88;2.00;;;26.00;99.90;;;;;;5086275;28;20032;-82
2023/09/17 11:19:16;;;;;;;7.07;2.10;;;26.10;99.80;;;;;;5063198;28;20522;-82
2023/09/17 11:22:02;;;;;;;7.80;1.92;;;26.30;99.30;;;;;;5085734;28;20055;-82
2023/09/17 11:24:28;;;;;;;6.68;2.20;;;26.40;98.80;;;;;;5060760;28;20089;-84
2023/09/17 11:26:56;;;;;;;6.53;1.98;;;26.40;99.00;;;;;;5081800;28;20056;-83
2023/09/17 11:29:40;;;;;;;11.70;2.50;;;26.40;99.00;;;;;;5082190;28;20494;-81
2023/09/17 11:32:06;;;;;;;7.78;2.28;;;26.50;99.20;;;;;;5071469;28;20458;-83
2023/09/17 11:34:36;;;;;;;7.70;2.05;;;26.70;98.60;;;;;;5060728;28;20035;-83
2023/09/17 11:37:04;;;;;;;6.18;2.63;;;26.80;98.40;;;;;;5064906;28;20501;-81
2023/09/17 11:39:31;;;;;;;4.30;2.00;;;26.90;98.40;;;;;;5058277;28;20024;-82
2023/09/17 11:42:12;;;;;;;9.70;2.00;;;26.90;98.00;;;;;;5066683;28;20024;-83
2023/09/17 11:44:40;;;;;;;8.05;1.95;;;26.90;97.90;;;;;;5067220;28;20028;-83
2023/09/17 11:47:07;;;;;;;5.57;1.98;;;27.00;97.90;;;;;;5067112;28;20047;-84
2023/09/17 11:49:34;;;;;;;6.88;1.90;;;27.00;97.90;;;;;;5062480;28;20029;-83
2023/09/17 11:51:59;;;;;;;7.65;2.20;;;27.10;97.40;;;;;;5066525;28;20034;-84
2023/09/17 11:54:33;;;;;;;7.97;2.13;;;27.20;97.40;;;;;;5078186;28;20103;-83
2023/09/17 11:56:59;;;;;;;7.78;1.63;;;27.20;97.50;;;;;;5083859;28;20032;-83
2023/09/17 11:59:26;;;;;;;7.78;2.10;;;27.20;97.20;;;;;;5062805;28;20028;-84
2023/09/17 12:01:54;;;;;;;5.32;1.90;;;27.20;97.30;;;;;;5079504;28;20028;-83
2023/09/17 12:04:30;;;;;;;6.45;2.03;;;27.30;97.40;;;;;;5088767;28;20039;-83
2023/09/17 12:06:57;;;;;;;4.55;1.63;;;27.30;97.40;;;;;;5062368;28;20058;-81
2023/09/17 12:12:05;;;;;;;5.70;1.88;;;27.40;97.60;;;;;;5079511;28;20036;-81
2023/09/17 12:14:35;;;;;;;8.35;2.10;;;27.50;97.50;;;;;;5065909;28;20027;-81
2023/09/17 12:17:01;;;;;;;8.13;2.28;;;27.50;97.60;;;;;;5063621;28;20024;-81
2023/09/17 12:19:28;;;;;;;10.00;2.28;;;27.50;97.60;;;;;;5075095;28;20023;-82
2023/09/17 12:21:55;;;;;;;8.27;2.05;;;27.60;96.90;;;;;;5063957;28;20098;-83
2023/09/17 12:24:34;;;;;;;7.43;2.10;;;27.70;96.70;;;;;;5081304;28;20024;-82
2023/09/17 12:29:33;;;;;;;7.05;2.10;;;27.90;96.40;;;;;;5082590;28;20415;-85
2023/09/17 12:31:58;;;;;;;8.32;2.60;;;27.90;96.30;;;;;;5078551;28;20107;-83
2023/09/17 12:34:25;;;;;;;11.20;2.30;;;28.00;96.10;;;;;;5066748;28;20162;-83
2023/09/17 12:36:50;;;;;;;11.77;2.35;;;28.20;96.10;;;;;;5060018;28;20083;-82
2023/09/17 12:39:16;;;;;;;6.80;2.28;;;28.30;95.40;;;;;;5060739;28;20121;-79
2023/09/17 12:41:43;;;;;;;12.23;2.83;;;28.40;95.40;;;;;;5060965;28;20028;-82
2023/09/17 12:44:10;;;;;;;6.95;1.95;;;28.50;94.90;;;;;;5089519;28;20473;-84
2023/09/17 12:46:36;;;;;;;9.57;2.03;;;28.60;94.70;;;;;;5065346;28;20035;-83
2023/09/17 12:49:02;;;;;;;6.43;1.70;;;28.70;93.90;;;;;;5064359;28;20116;-83